Terminal Aerodrome Forecast
Issued by NWS

Home | Current Version | Previous Version | Graphics & Text | Print | Product List | Glossary On
Versions: 1 2 3 4 5 6 7 8 9 10 11 12 13 14 15
589
FTUS42 KMHX 231145
TAFPGV
TAF
KPGV 231145Z 2312/2412 06007KT P6SM VCSH BKN010 OVC016
      TEMPO 2312/2315 OVC009
     FM231700 06011KT P6SM VCSH OVC015
     FM240000 06008KT P6SM VCSH OVC007
     FM240800 06005KT 5SM -SHRA OVC007
      AMD LTD TO CLD VIS AND WIND=

USA.gov is the U.S. government's official web portal to all federal, state and local government web resources and services.